sensor_id;sensor_type;location;lat;lon;timestamp;temperature;humidity
69335;SHT31;56477;52.742;15.242;2022-07-26T00:02:21;20.35;91.25
69335;SHT31;56477;52.742;15.242;2022-07-26T00:04:47;20.41;90.66
69335;SHT31;56477;52.742;15.242;2022-07-26T00:07:13;20.35;91.07
69335;SHT31;56477;52.742;15.242;2022-07-26T00:09:40;20.24;90.77
69335;SHT31;56477;52.742;15.242;2022-07-26T00:12:06;20.20;90.87
69335;SHT31;56477;52.742;15.242;2022-07-26T00:14:32;20.14;91.17
69335;SHT31;56477;52.742;15.242;2022-07-26T00:16:58;20.14;91.43
69335;SHT31;56477;52.742;15.242;2022-07-26T00:19:24;20.07;90.76
69335;SHT31;56477;52.742;15.242;2022-07-26T00:21:50;20.13;90.77
69335;SHT31;56477;52.742;15.242;2022-07-26T00:24:36;20.16;89.98
69335;SHT31;56477;52.742;15.242;2022-07-26T00:27:02;20.07;89.24
69335;SHT31;56477;52.742;15.242;2022-07-26T00:29:27;20.09;89.22
69335;SHT31;56477;52.742;15.242;2022-07-26T00:31:54;20.00;88.34
69335;SHT31;56477;52.742;15.242;2022-07-26T00:34:20;20.03;88.11
69335;SHT31;56477;52.742;15.242;2022-07-26T00:36:45;19.98;88.07
69335;SHT31;56477;52.742;15.242;2022-07-26T00:39:12;19.97;87.76
69335;SHT31;56477;52.742;15.242;2022-07-26T00:41:38;19.90;88.06
69335;SHT31;56477;52.742;15.242;2022-07-26T00:44:03;19.93;87.56
69335;SHT31;56477;52.742;15.242;2022-07-26T00:46:30;19.82;87.47
69335;SHT31;56477;52.742;15.242;2022-07-26T00:48:55;19.66;87.69
69335;SHT31;56477;52.742;15.242;2022-07-26T00:51:23;19.73;88.10
69335;SHT31;56477;52.742;15.242;2022-07-26T00:53:49;19.69;87.75
69335;SHT31;56477;52.742;15.242;2022-07-26T00:56:15;19.66;87.12
69335;SHT31;56477;52.742;15.242;2022-07-26T00:58:42;19.49;88.02
69335;SHT31;56477;52.742;15.242;2022-07-26T01:01:08;19.51;87.63
69335;SHT31;56477;52.742;15.242;2022-07-26T01:03:34;19.41;87.43
69335;SHT31;56477;52.742;15.242;2022-07-26T01:06:00;19.28;87.64
69335;SHT31;56477;52.742;15.242;2022-07-26T01:08:26;19.28;88.54
69335;SHT31;56477;52.742;15.242;2022-07-26T01:10:52;19.11;88.02
69335;SHT31;56477;52.742;15.242;2022-07-26T01:13:20;19.12;88.24
69335;SHT31;56477;52.742;15.242;2022-07-26T01:15:46;18.97;88.52
69335;SHT31;56477;52.742;15.242;2022-07-26T01:18:12;18.94;88.50
69335;SHT31;56477;52.742;15.242;2022-07-26T01:20:38;18.78;88.91
69335;SHT31;56477;52.742;15.242;2022-07-26T01:23:04;18.70;88.99
69335;SHT31;56477;52.742;15.242;2022-07-26T01:25:33;18.67;88.42
69335;SHT31;56477;52.742;15.242;2022-07-26T01:28:00;18.55;89.18
69335;SHT31;56477;52.742;15.242;2022-07-26T01:30:26;18.50;88.93
69335;SHT31;56477;52.742;15.242;2022-07-26T01:32:52;18.53;89.14
69335;SHT31;56477;52.742;15.242;2022-07-26T01:35:18;18.46;89.50
69335;SHT31;56477;52.742;15.242;2022-07-26T01:37:44;18.50;89.52
69335;SHT31;56477;52.742;15.242;2022-07-26T01:40:10;18.52;89.60
69335;SHT31;56477;52.742;15.242;2022-07-26T01:42:36;18.33;89.80
69335;SHT31;56477;52.742;15.242;2022-07-26T01:45:09;18.21;90.67
69335;SHT31;56477;52.742;15.242;2022-07-26T01:47:37;18.16;91.51
69335;SHT31;56477;52.742;15.242;2022-07-26T01:50:03;18.15;91.63
69335;SHT31;56477;52.742;15.242;2022-07-26T01:52:30;18.05;92.54
69335;SHT31;56477;52.742;15.242;2022-07-26T01:54:56;17.87;93.00
69335;SHT31;56477;52.742;15.242;2022-07-26T01:57:22;17.82;93.61
69335;SHT31;56477;52.742;15.242;2022-07-26T01:59:48;17.77;93.15
69335;SHT31;56477;52.742;15.242;2022-07-26T02:02:14;17.67;93.08
69335;SHT31;56477;52.742;15.242;2022-07-26T02:04:39;17.67;93.46
69335;SHT31;56477;52.742;15.242;2022-07-26T02:07:28;17.61;93.28
69335;SHT31;56477;52.742;15.242;2022-07-26T02:09:55;17.54;93.66
69335;SHT31;56477;52.742;15.242;2022-07-26T02:12:21;17.53;93.63
69335;SHT31;56477;52.742;15.242;2022-07-26T02:14:47;17.50;93.47
69335;SHT31;56477;52.742;15.242;2022-07-26T02:17:13;17.47;93.43
69335;SHT31;56477;52.742;15.242;2022-07-26T02:19:39;17.48;94.11
69335;SHT31;56477;52.742;15.242;2022-07-26T02:22:05;17.43;94.00
69335;SHT31;56477;52.742;15.242;2022-07-26T02:24:32;17.47;93.92
69335;SHT31;56477;52.742;15.242;2022-07-26T02:26:59;17.37;93.42
69335;SHT31;56477;52.742;15.242;2022-07-26T02:29:25;17.29;93.23
69335;SHT31;56477;52.742;15.242;2022-07-26T02:31:52;17.24;93.35
69335;SHT31;56477;52.742;15.242;2022-07-26T02:34:19;17.23;93.64
69335;SHT31;56477;52.742;15.242;2022-07-26T02:36:45;17.27;93.80
69335;SHT31;56477;52.742;15.242;2022-07-26T02:39:11;17.31;93.32
69335;SHT31;56477;52.742;15.242;2022-07-26T02:41:37;17.34;93.81
69335;SHT31;56477;52.742;15.242;2022-07-26T02:44:04;17.30;92.81
69335;SHT31;56477;52.742;15.242;2022-07-26T02:46:30;17.34;93.20
69335;SHT31;56477;52.742;15.242;2022-07-26T02:48:56;17.47;93.15
69335;SHT31;56477;52.742;15.242;2022-07-26T02:51:24;17.36;93.24
69335;SHT31;56477;52.742;15.242;2022-07-26T02:53:50;17.29;93.57
69335;SHT31;56477;52.742;15.242;2022-07-26T02:56:15;17.33;93.65
69335;SHT31;56477;52.742;15.242;2022-07-26T02:58:42;17.41;93.75
69335;SHT31;56477;52.742;15.242;2022-07-26T03:01:07;17.29;93.39
69335;SHT31;56477;52.742;15.242;2022-07-26T03:03:33;17.27;93.91
69335;SHT31;56477;52.742;15.242;2022-07-26T03:05:59;17.30;93.80
69335;SHT31;56477;52.742;15.242;2022-07-26T03:08:25;17.26;93.55
69335;SHT31;56477;52.742;15.242;2022-07-26T03:10:51;17.22;93.73
69335;SHT31;56477;52.742;15.242;2022-07-26T03:13:17;17.22;93.86
69335;SHT31;56477;52.742;15.242;2022-07-26T03:15:43;17.27;93.72
69335;SHT31;56477;52.742;15.242;2022-07-26T03:18:09;17.31;93.73
69335;SHT31;56477;52.742;15.242;2022-07-26T03:20:35;17.39;93.72
69335;SHT31;56477;52.742;15.242;2022-07-26T03:23:01;17.36;93.86
69335;SHT31;56477;52.742;15.242;2022-07-26T03:25:27;17.31;93.80
69335;SHT31;56477;52.742;15.242;2022-07-26T03:27:54;17.34;94.15
69335;SHT31;56477;52.742;15.242;2022-07-26T03:30:22;17.40;94.08
69335;SHT31;56477;52.742;15.242;2022-07-26T03:32:48;17.41;94.06
69335;SHT31;56477;52.742;15.242;2022-07-26T03:35:14;17.43;93.55
69335;SHT31;56477;52.742;15.242;2022-07-26T03:37:40;17.46;93.61
69335;SHT31;56477;52.742;15.242;2022-07-26T03:40:07;17.43;93.86
69335;SHT31;56477;52.742;15.242;2022-07-26T03:42:34;17.36;93.61
69335;SHT31;56477;52.742;15.242;2022-07-26T03:45:01;17.46;93.47
69335;SHT31;56477;52.742;15.242;2022-07-26T03:47:26;17.54;93.53
69335;SHT31;56477;52.742;15.242;2022-07-26T03:49:53;17.57;93.15
69335;SHT31;56477;52.742;15.242;2022-07-26T03:52:18;17.53;93.07
69335;SHT31;56477;52.742;15.242;2022-07-26T03:54:44;17.54;93.20
69335;SHT31;56477;52.742;15.242;2022-07-26T03:57:10;17.48;93.58
69335;SHT31;56477;52.742;15.242;2022-07-26T03:59:36;17.51;93.98
69335;SHT31;56477;52.742;15.242;2022-07-26T04:02:02;17.46;94.02
69335;SHT31;56477;52.742;15.242;2022-07-26T04:04:28;17.41;94.05
69335;SHT31;56477;52.742;15.242;2022-07-26T04:06:54;17.44;93.75
69335;SHT31;56477;52.742;15.242;2022-07-26T04:09:21;17.53;93.39
69335;SHT31;56477;52.742;15.242;2022-07-26T04:11:47;17.54;93.46
69335;SHT31;56477;52.742;15.242;2022-07-26T04:14:13;17.54;93.41
69335;SHT31;56477;52.742;15.242;2022-07-26T04:16:39;17.51;93.30
69335;SHT31;56477;52.742;15.242;2022-07-26T04:19:05;17.55;93.50
69335;SHT31;56477;52.742;15.242;2022-07-26T04:21:31;17.54;93.47
69335;SHT31;56477;52.742;15.242;2022-07-26T04:23:57;17.61;93.19
69335;SHT31;56477;52.742;15.242;2022-07-26T04:26:24;17.58;92.98
69335;SHT31;56477;52.742;15.242;2022-07-26T04:28:49;17.60;93.25
69335;SHT31;56477;52.742;15.242;2022-07-26T04:31:15;17.63;93.12
69335;SHT31;56477;52.742;15.242;2022-07-26T04:33:41;17.61;92.97
69335;SHT31;56477;52.742;15.242;2022-07-26T04:36:08;17.60;92.50
69335;SHT31;56477;52.742;15.242;2022-07-26T04:38:33;17.68;92.93
69335;SHT31;56477;52.742;15.242;2022-07-26T04:40:59;17.71;92.82
69335;SHT31;56477;52.742;15.242;2022-07-26T04:43:25;17.71;93.24
69335;SHT31;56477;52.742;15.242;2022-07-26T04:45:51;17.73;93.34
69335;SHT31;56477;52.742;15.242;2022-07-26T04:48:17;17.75;93.46
69335;SHT31;56477;52.742;15.242;2022-07-26T04:50:43;17.73;92.86
69335;SHT31;56477;52.742;15.242;2022-07-26T04:53:09;17.77;93.03
69335;SHT31;56477;52.742;15.242;2022-07-26T04:55:39;17.75;93.02
69335;SHT31;56477;52.742;15.242;2022-07-26T04:58:05;17.81;93.06
69335;SHT31;56477;52.742;15.242;2022-07-26T05:00:31;17.77;92.49
69335;SHT31;56477;52.742;15.242;2022-07-26T05:02:59;17.79;92.43
69335;SHT31;56477;52.742;15.242;2022-07-26T05:05:27;17.85;92.61
69335;SHT31;56477;52.742;15.242;2022-07-26T05:07:55;17.91;92.01
69335;SHT31;56477;52.742;15.242;2022-07-26T05:10:28;17.89;92.36
69335;SHT31;56477;52.742;15.242;2022-07-26T05:12:54;17.88;92.70
69335;SHT31;56477;52.742;15.242;2022-07-26T05:15:20;17.82;92.74
69335;SHT31;56477;52.742;15.242;2022-07-26T05:17:47;17.92;92.96
69335;SHT31;56477;52.742;15.242;2022-07-26T05:20:14;17.89;92.63
69335;SHT31;56477;52.742;15.242;2022-07-26T05:22:41;17.97;92.18
69335;SHT31;56477;52.742;15.242;2022-07-26T05:25:07;18.10;92.18
69335;SHT31;56477;52.742;15.242;2022-07-26T05:27:33;18.04;92.36
69335;SHT31;56477;52.742;15.242;2022-07-26T05:29:59;18.05;92.12
69335;SHT31;56477;52.742;15.242;2022-07-26T05:32:25;18.02;92.10
69335;SHT31;56477;52.742;15.242;2022-07-26T05:34:52;18.02;92.34
69335;SHT31;56477;52.742;15.242;2022-07-26T05:37:18;18.09;91.90
69335;SHT31;56477;52.742;15.242;2022-07-26T05:39:44;18.08;92.17
69335;SHT31;56477;52.742;15.242;2022-07-26T05:42:10;18.13;92.06
69335;SHT31;56477;52.742;15.242;2022-07-26T05:44:36;18.18;92.46
69335;SHT31;56477;52.742;15.242;2022-07-26T05:47:02;18.16;92.55
69335;SHT31;56477;52.742;15.242;2022-07-26T05:49:28;18.26;92.36
69335;SHT31;56477;52.742;15.242;2022-07-26T05:51:54;18.42;92.50
69335;SHT31;56477;52.742;15.242;2022-07-26T05:54:20;18.36;92.55
69335;SHT31;56477;52.742;15.242;2022-07-26T05:56:46;18.32;92.78
69335;SHT31;56477;52.742;15.242;2022-07-26T05:59:12;18.46;92.79
69335;SHT31;56477;52.742;15.242;2022-07-26T06:01:39;18.46;92.63
69335;SHT31;56477;52.742;15.242;2022-07-26T06:04:04;18.53;92.59
69335;SHT31;56477;52.742;15.242;2022-07-26T06:06:31;18.56;92.52
69335;SHT31;56477;52.742;15.242;2022-07-26T06:08:57;18.55;92.57
69335;SHT31;56477;52.742;15.242;2022-07-26T06:11:23;18.47;92.65
69335;SHT31;56477;52.742;15.242;2022-07-26T06:13:48;18.10;93.18
69335;SHT31;56477;52.742;15.242;2022-07-26T06:16:14;18.05;93.40
69335;SHT31;56477;52.742;15.242;2022-07-26T06:18:40;18.29;93.09
69335;SHT31;56477;52.742;15.242;2022-07-26T06:21:06;18.39;93.08
69335;SHT31;56477;52.742;15.242;2022-07-26T06:23:33;18.39;92.46
69335;SHT31;56477;52.742;15.242;2022-07-26T06:25:59;18.47;92.21
69335;SHT31;56477;52.742;15.242;2022-07-26T06:28:25;18.40;92.20
69335;SHT31;56477;52.742;15.242;2022-07-26T06:30:51;18.63;92.54
69335;SHT31;56477;52.742;15.242;2022-07-26T06:33:16;18.70;92.15
69335;SHT31;56477;52.742;15.242;2022-07-26T06:35:42;18.73;91.79
69335;SHT31;56477;52.742;15.242;2022-07-26T06:38:08;18.73;91.86
69335;SHT31;56477;52.742;15.242;2022-07-26T06:40:34;18.67;92.45
69335;SHT31;56477;52.742;15.242;2022-07-26T06:43:01;18.74;91.45
69335;SHT31;56477;52.742;15.242;2022-07-26T06:45:28;18.94;91.94
69335;SHT31;56477;52.742;15.242;2022-07-26T06:47:54;19.12;91.52
69335;SHT31;56477;52.742;15.242;2022-07-26T06:50:21;18.93;90.81
69335;SHT31;56477;52.742;15.242;2022-07-26T06:52:47;19.18;90.97
69335;SHT31;56477;52.742;15.242;2022-07-26T06:55:13;19.31;91.04
69335;SHT31;56477;52.742;15.242;2022-07-26T06:57:39;19.24;90.91
69335;SHT31;56477;52.742;15.242;2022-07-26T07:00:07;19.46;89.78
69335;SHT31;56477;52.742;15.242;2022-07-26T07:02:34;19.49;89.55
69335;SHT31;56477;52.742;15.242;2022-07-26T07:05:00;19.72;89.22
69335;SHT31;56477;52.742;15.242;2022-07-26T07:07:26;19.77;88.56
69335;SHT31;56477;52.742;15.242;2022-07-26T07:09:52;19.86;87.29
69335;SHT31;56477;52.742;15.242;2022-07-26T07:12:18;19.65;88.13
69335;SHT31;56477;52.742;15.242;2022-07-26T07:14:44;19.79;87.79
69335;SHT31;56477;52.742;15.242;2022-07-26T07:17:10;19.63;87.09
69335;SHT31;56477;52.742;15.242;2022-07-26T07:19:36;19.53;84.94
69335;SHT31;56477;52.742;15.242;2022-07-26T07:22:04;19.79;85.30
69335;SHT31;56477;52.742;15.242;2022-07-26T07:24:30;19.92;84.86
69335;SHT31;56477;52.742;15.242;2022-07-26T07:26:56;19.93;84.08
69335;SHT31;56477;52.742;15.242;2022-07-26T07:29:24;20.27;82.79
69335;SHT31;56477;52.742;15.242;2022-07-26T07:31:50;20.45;80.50
69335;SHT31;56477;52.742;15.242;2022-07-26T07:34:17;20.51;80.28
69335;SHT31;56477;52.742;15.242;2022-07-26T07:36:43;21.16;77.79
69335;SHT31;56477;52.742;15.242;2022-07-26T07:39:09;21.78;78.20
69335;SHT31;56477;52.742;15.242;2022-07-26T07:41:35;21.65;76.83
69335;SHT31;56477;52.742;15.242;2022-07-26T07:44:04;21.62;76.13
69335;SHT31;56477;52.742;15.242;2022-07-26T07:46:30;21.69;75.32
69335;SHT31;56477;52.742;15.242;2022-07-26T07:48:56;21.89;74.54
69335;SHT31;56477;52.742;15.242;2022-07-26T07:51:27;21.95;74.78
69335;SHT31;56477;52.742;15.242;2022-07-26T07:53:53;21.69;74.35
69335;SHT31;56477;52.742;15.242;2022-07-26T07:56:19;21.55;74.75
69335;SHT31;56477;52.742;15.242;2022-07-26T07:58:46;21.06;76.07
69335;SHT31;56477;52.742;15.242;2022-07-26T08:01:11;21.68;74.76
69335;SHT31;56477;52.742;15.242;2022-07-26T08:03:37;21.99;74.74
69335;SHT31;56477;52.742;15.242;2022-07-26T08:06:05;22.02;72.99
69335;SHT31;56477;52.742;15.242;2022-07-26T08:08:32;22.56;72.81
69335;SHT31;56477;52.742;15.242;2022-07-26T08:10:58;22.17;72.08
69335;SHT31;56477;52.742;15.242;2022-07-26T08:13:24;21.94;73.08
69335;SHT31;56477;52.742;15.242;2022-07-26T08:15:50;21.79;71.40
69335;SHT31;56477;52.742;15.242;2022-07-26T08:18:17;21.88;69.34
69335;SHT31;56477;52.742;15.242;2022-07-26T08:20:43;22.44;68.67
69335;SHT31;56477;52.742;15.242;2022-07-26T08:23:09;22.54;70.83
69335;SHT31;56477;52.742;15.242;2022-07-26T08:25:34;21.47;70.68
69335;SHT31;56477;52.742;15.242;2022-07-26T08:28:01;21.86;70.45
69335;SHT31;56477;52.742;15.242;2022-07-26T08:30:26;22.09;70.93
69335;SHT31;56477;52.742;15.242;2022-07-26T08:32:52;22.65;68.30
69335;SHT31;56477;52.742;15.242;2022-07-26T08:35:18;22.37;67.86
69335;SHT31;56477;52.742;15.242;2022-07-26T08:37:46;22.47;66.82
69335;SHT31;56477;52.742;15.242;2022-07-26T08:40:12;22.20;68.49
69335;SHT31;56477;52.742;15.242;2022-07-26T08:42:38;22.01;67.81
69335;SHT31;56477;52.742;15.242;2022-07-26T08:45:04;22.17;67.03
69335;SHT31;56477;52.742;15.242;2022-07-26T08:47:30;21.58;67.39
69335;SHT31;56477;52.742;15.242;2022-07-26T08:49:56;21.57;68.87
69335;SHT31;56477;52.742;15.242;2022-07-26T08:52:22;21.50;70.14
69335;SHT31;56477;52.742;15.242;2022-07-26T08:54:50;21.24;69.50
69335;SHT31;56477;52.742;15.242;2022-07-26T08:57:17;21.37;68.98
69335;SHT31;56477;52.742;15.242;2022-07-26T08:59:43;21.40;65.85
69335;SHT31;56477;52.742;15.242;2022-07-26T09:02:12;22.08;65.32
69335;SHT31;56477;52.742;15.242;2022-07-26T09:04:40;21.88;65.07
69335;SHT31;56477;52.742;15.242;2022-07-26T09:07:17;21.71;65.62
69335;SHT31;56477;52.742;15.242;2022-07-26T09:10:03;21.65;64.90
69335;SHT31;56477;52.742;15.242;2022-07-26T09:12:30;21.50;66.23
69335;SHT31;56477;52.742;15.242;2022-07-26T09:14:58;21.29;66.81
69335;SHT31;56477;52.742;15.242;2022-07-26T09:17:44;21.40;66.04
69335;SHT31;56477;52.742;15.242;2022-07-26T09:20:13;21.58;66.02
69335;SHT31;56477;52.742;15.242;2022-07-26T09:23:03;21.54;66.69
69335;SHT31;56477;52.742;15.242;2022-07-26T09:25:32;21.47;67.18
69335;SHT31;56477;52.742;15.242;2022-07-26T09:27:59;21.50;67.02
69335;SHT31;56477;52.742;15.242;2022-07-26T09:30:28;21.23;67.66
69335;SHT31;56477;52.742;15.242;2022-07-26T09:32:59;21.24;67.41
69335;SHT31;56477;52.742;15.242;2022-07-26T09:35:27;21.09;68.26
69335;SHT31;56477;52.742;15.242;2022-07-26T09:37:53;21.16;69.21
69335;SHT31;56477;52.742;15.242;2022-07-26T09:40:19;21.24;68.19
69335;SHT31;56477;52.742;15.242;2022-07-26T09:42:56;21.29;67.61
69335;SHT31;56477;52.742;15.242;2022-07-26T09:45:24;21.43;67.55
69335;SHT31;56477;52.742;15.242;2022-07-26T09:47:50;21.55;66.66
69335;SHT31;56477;52.742;15.242;2022-07-26T09:50:18;21.82;65.55
69335;SHT31;56477;52.742;15.242;2022-07-26T09:55:35;22.17;64.67
69335;SHT31;56477;52.742;15.242;2022-07-26T09:58:01;22.26;63.51
69335;SHT31;56477;52.742;15.242;2022-07-26T10:00:32;22.37;63.54
69335;SHT31;56477;52.742;15.242;2022-07-26T10:02:58;22.98;62.39
69335;SHT31;56477;52.742;15.242;2022-07-26T10:05:24;22.81;62.25
69335;SHT31;56477;52.742;15.242;2022-07-26T10:07:51;22.04;64.01
69335;SHT31;56477;52.742;15.242;2022-07-26T10:10:22;22.30;64.42
69335;SHT31;56477;52.742;15.242;2022-07-26T10:12:51;22.20;64.93
69335;SHT31;56477;52.742;15.242;2022-07-26T10:15:43;22.25;64.56
69335;SHT31;56477;52.742;15.242;2022-07-26T10:18:40;22.47;65.59
69335;SHT31;56477;52.742;15.242;2022-07-26T10:20:56;22.77;62.43
69335;SHT31;56477;52.742;15.242;2022-07-26T10:26:02;23.11;60.15
69335;SHT31;56477;52.742;15.242;2022-07-26T10:28:31;23.11;58.41
69335;SHT31;56477;52.742;15.242;2022-07-26T10:31:22;23.92;57.76
69335;SHT31;56477;52.742;15.242;2022-07-26T10:33:52;23.81;57.44
69335;SHT31;56477;52.742;15.242;2022-07-26T10:41:42;23.38;58.66
69335;SHT31;56477;52.742;15.242;2022-07-26T10:44:19;23.63;57.51
69335;SHT31;56477;52.742;15.242;2022-07-26T10:49:39;24.09;56.25
69335;SHT31;56477;52.742;15.242;2022-07-26T10:59:49;24.31;54.34
69335;SHT31;56477;52.742;15.242;2022-07-26T11:02:25;23.90;55.56
69335;SHT31;56477;52.742;15.242;2022-07-26T11:05:06;24.14;55.51
69335;SHT31;56477;52.742;15.242;2022-07-26T11:07:53;24.39;54.76
69335;SHT31;56477;52.742;15.242;2022-07-26T11:10:25;24.07;54.48
69335;SHT31;56477;52.742;15.242;2022-07-26T11:15:27;22.88;57.70
69335;SHT31;56477;52.742;15.242;2022-07-26T11:18:13;22.83;57.77
69335;SHT31;56477;52.742;15.242;2022-07-26T11:20:41;22.75;58.38
69335;SHT31;56477;52.742;15.242;2022-07-26T11:28:41;24.72;54.36
69335;SHT31;56477;52.742;15.242;2022-07-26T11:31:07;24.86;53.84
69335;SHT31;56477;52.742;15.242;2022-07-26T11:33:36;25.19;51.59
69335;SHT31;56477;52.742;15.242;2022-07-26T11:36:03;24.78;53.78
69335;SHT31;56477;52.742;15.242;2022-07-26T11:38:49;24.48;53.74
69335;SHT31;56477;52.742;15.242;2022-07-26T11:41:23;24.32;53.76
69335;SHT31;56477;52.742;15.242;2022-07-26T11:43:51;24.48;55.64
69335;SHT31;56477;52.742;15.242;2022-07-26T11:46:18;24.97;52.99
69335;SHT31;56477;52.742;15.242;2022-07-26T11:48:51;25.15;54.11
69335;SHT31;56477;52.742;15.242;2022-07-26T11:51:18;25.43;52.96
69335;SHT31;56477;52.742;15.242;2022-07-26T11:53:44;26.50;49.92
69335;SHT31;56477;52.742;15.242;2022-07-26T11:58:41;26.26;49.18
69335;SHT31;56477;52.742;15.242;2022-07-26T12:01:08;26.49;49.35
69335;SHT31;56477;52.742;15.242;2022-07-26T12:03:36;25.74;50.78
69335;SHT31;56477;52.742;15.242;2022-07-26T12:06:14;25.98;49.74
69335;SHT31;56477;52.742;15.242;2022-07-26T12:08:45;26.87;47.84
69335;SHT31;56477;52.742;15.242;2022-07-26T12:11:12;27.83;46.48
69335;SHT31;56477;52.742;15.242;2022-07-26T12:13:55;26.54;48.41
69335;SHT31;56477;52.742;15.242;2022-07-26T12:16:44;24.71;51.60
69335;SHT31;56477;52.742;15.242;2022-07-26T12:21:54;23.90;53.34
69335;SHT31;56477;52.742;15.242;2022-07-26T12:29:46;23.42;56.17
69335;SHT31;56477;52.742;15.242;2022-07-26T12:32:37;23.35;56.52
69335;SHT31;56477;52.742;15.242;2022-07-26T12:37:35;23.26;57.06
69335;SHT31;56477;52.742;15.242;2022-07-26T12:42:33;22.98;57.67
69335;SHT31;56477;52.742;15.242;2022-07-26T12:45:01;22.91;58.39
69335;SHT31;56477;52.742;15.242;2022-07-26T12:47:27;22.91;58.29
69335;SHT31;56477;52.742;15.242;2022-07-26T12:49:53;23.11;58.22
69335;SHT31;56477;52.742;15.242;2022-07-26T12:52:21;23.53;58.26
69335;SHT31;56477;52.742;15.242;2022-07-26T12:54:49;24.03;56.56
69335;SHT31;56477;52.742;15.242;2022-07-26T12:57:16;24.16;54.66
69335;SHT31;56477;52.742;15.242;2022-07-26T12:59:42;24.07;55.18
69335;SHT31;56477;52.742;15.242;2022-07-26T13:02:08;24.10;53.02
69335;SHT31;56477;52.742;15.242;2022-07-26T13:04:34;23.96;53.45
69335;SHT31;56477;52.742;15.242;2022-07-26T13:07:00;23.96;52.21
69335;SHT31;56477;52.742;15.242;2022-07-26T13:09:27;24.09;53.10
69335;SHT31;56477;52.742;15.242;2022-07-26T13:11:53;24.54;51.50
69335;SHT31;56477;52.742;15.242;2022-07-26T13:14:19;24.69;51.47
69335;SHT31;56477;52.742;15.242;2022-07-26T13:16:45;24.52;52.13
69335;SHT31;56477;52.742;15.242;2022-07-26T13:19:11;24.11;50.63
69335;SHT31;56477;52.742;15.242;2022-07-26T13:21:37;24.21;51.42
69335;SHT31;56477;52.742;15.242;2022-07-26T13:24:03;24.13;51.90
69335;SHT31;56477;52.742;15.242;2022-07-26T13:26:29;24.18;51.54
69335;SHT31;56477;52.742;15.242;2022-07-26T13:28:55;23.93;52.06
69335;SHT31;56477;52.742;15.242;2022-07-26T13:31:22;23.81;52.43
69335;SHT31;56477;52.742;15.242;2022-07-26T13:33:48;23.66;53.84
69335;SHT31;56477;52.742;15.242;2022-07-26T13:36:14;23.69;53.63
69335;SHT31;56477;52.742;15.242;2022-07-26T13:38:40;23.59;53.83
69335;SHT31;56477;52.742;15.242;2022-07-26T13:41:07;23.62;53.61
69335;SHT31;56477;52.742;15.242;2022-07-26T13:43:34;23.62;54.87
69335;SHT31;56477;52.742;15.242;2022-07-26T13:46:00;23.56;56.18
69335;SHT31;56477;52.742;15.242;2022-07-26T13:48:26;23.43;57.74
69335;SHT31;56477;52.742;15.242;2022-07-26T13:50:53;23.32;61.09
69335;SHT31;56477;52.742;15.242;2022-07-26T13:53:19;23.23;63.84
69335;SHT31;56477;52.742;15.242;2022-07-26T13:55:45;23.18;66.09
69335;SHT31;56477;52.742;15.242;2022-07-26T13:58:11;23.14;63.00
69335;SHT31;56477;52.742;15.242;2022-07-26T14:00:39;23.07;65.64
69335;SHT31;56477;52.742;15.242;2022-07-26T14:03:05;22.83;63.37
69335;SHT31;56477;52.742;15.242;2022-07-26T14:05:31;22.22;66.02
69335;SHT31;56477;52.742;15.242;2022-07-26T14:07:57;21.55;69.10
69335;SHT31;56477;52.742;15.242;2022-07-26T14:10:23;20.31;77.80
69335;SHT31;56477;52.742;15.242;2022-07-26T14:12:49;19.19;81.27
69335;SHT31;56477;52.742;15.242;2022-07-26T14:15:16;18.68;84.03
69335;SHT31;56477;52.742;15.242;2022-07-26T14:17:42;18.32;87.15
69335;SHT31;56477;52.742;15.242;2022-07-26T14:20:10;17.98;88.85
69335;SHT31;56477;52.742;15.242;2022-07-26T14:22:36;17.77;89.90
69335;SHT31;56477;52.742;15.242;2022-07-26T14:25:02;17.88;90.32
69335;SHT31;56477;52.742;15.242;2022-07-26T14:27:28;17.71;89.72
69335;SHT31;56477;52.742;15.242;2022-07-26T14:29:54;17.79;90.78
69335;SHT31;56477;52.742;15.242;2022-07-26T14:32:19;17.91;90.59
69335;SHT31;56477;52.742;15.242;2022-07-26T14:34:45;17.85;90.02
69335;SHT31;56477;52.742;15.242;2022-07-26T14:37:11;18.04;90.06
69335;SHT31;56477;52.742;15.242;2022-07-26T14:39:37;18.24;91.15
69335;SHT31;56477;52.742;15.242;2022-07-26T14:42:03;18.35;90.22
69335;SHT31;56477;52.742;15.242;2022-07-26T14:44:29;18.40;89.64
69335;SHT31;56477;52.742;15.242;2022-07-26T14:46:55;18.50;89.17
69335;SHT31;56477;52.742;15.242;2022-07-26T14:49:21;18.63;90.79
69335;SHT31;56477;52.742;15.242;2022-07-26T14:51:47;18.80;89.64
69335;SHT31;56477;52.742;15.242;2022-07-26T14:54:14;18.90;89.37
69335;SHT31;56477;52.742;15.242;2022-07-26T14:56:40;18.95;88.99
69335;SHT31;56477;52.742;15.242;2022-07-26T14:59:06;19.00;88.53
69335;SHT31;56477;52.742;15.242;2022-07-26T15:01:32;19.04;88.02
69335;SHT31;56477;52.742;15.242;2022-07-26T15:03:58;19.11;87.93
69335;SHT31;56477;52.742;15.242;2022-07-26T15:06:24;19.19;87.69
69335;SHT31;56477;52.742;15.242;2022-07-26T15:08:50;19.21;87.06
69335;SHT31;56477;52.742;15.242;2022-07-26T15:11:16;19.05;86.60
69335;SHT31;56477;52.742;15.242;2022-07-26T15:13:42;19.03;88.10
69335;SHT31;56477;52.742;15.242;2022-07-26T15:16:08;18.73;87.99
69335;SHT31;56477;52.742;15.242;2022-07-26T15:18:34;18.66;88.14
69335;SHT31;56477;52.742;15.242;2022-07-26T15:21:00;18.59;88.05
69335;SHT31;56477;52.742;15.242;2022-07-26T15:23:27;18.59;89.19
69335;SHT31;56477;52.742;15.242;2022-07-26T15:25:53;18.42;88.63
69335;SHT31;56477;52.742;15.242;2022-07-26T15:28:19;18.70;88.52
69335;SHT31;56477;52.742;15.242;2022-07-26T15:30:45;18.93;87.85
69335;SHT31;56477;52.742;15.242;2022-07-26T15:33:11;19.19;88.58
69335;SHT31;56477;52.742;15.242;2022-07-26T15:35:39;19.19;86.91
69335;SHT31;56477;52.742;15.242;2022-07-26T15:38:05;19.00;87.49
69335;SHT31;56477;52.742;15.242;2022-07-26T15:40:32;18.90;87.93
69335;SHT31;56477;52.742;15.242;2022-07-26T15:42:58;19.04;87.98
69335;SHT31;56477;52.742;15.242;2022-07-26T15:45:25;19.04;88.17
69335;SHT31;56477;52.742;15.242;2022-07-26T15:47:51;18.94;88.58
69335;SHT31;56477;52.742;15.242;2022-07-26T15:50:17;19.01;88.16
69335;SHT31;56477;52.742;15.242;2022-07-26T15:52:45;19.14;88.84
69335;SHT31;56477;52.742;15.242;2022-07-26T15:55:14;19.28;88.00
69335;SHT31;56477;52.742;15.242;2022-07-26T15:57:43;19.07;88.39
69335;SHT31;56477;52.742;15.242;2022-07-26T16:00:10;19.03;88.81
69335;SHT31;56477;52.742;15.242;2022-07-26T16:02:37;19.03;88.58